sensor_id;sensor_type;location;lat;lon;timestamp;pressure;altitude;pressure_sealevel;temperature;humidity
7407;BME280;3745;56.964;24.128;2023-05-01T00:00:02;101647.84;;;4.71;100.00
7407;BME280;3745;56.964;24.128;2023-05-01T00:02:29;101643.84;;;4.75;100.00
7407;BME280;3745;56.964;24.128;2023-05-01T00:04:55;101618.88;;;4.60;100.00
7407;BME280;3745;56.964;24.128;2023-05-01T00:07:21;101676.28;;;4.88;100.00
7407;BME280;3745;56.964;24.128;2023-05-01T00:09:47;101681.34;;;5.06;100.00
7407;BME280;3745;56.964;24.128;2023-05-01T00:12:13;101683.56;;;5.00;100.00
7407;BME280;3745;56.964;24.128;2023-05-01T00:14:39;101682.63;;;4.98;100.00
7407;BME280;3745;56.964;24.128;2023-05-01T00:17:04;101570.03;;;4.36;100.00
7407;BME280;3745;56.964;24.128;2023-05-01T00:19:30;101639.72;;;4.75;100.00
7407;BME280;3745;56.964;24.128;2023-05-01T00:21:56;101634.38;;;4.69;100.00
7407;BME280;3745;56.964;24.128;2023-05-01T00:24:21;101601.50;;;4.47;100.00
7407;BME280;3745;56.964;24.128;2023-05-01T00:26:47;101551.41;;;4.15;100.00
7407;BME280;3745;56.964;24.128;2023-05-01T00:29:13;101656.47;;;4.60;100.00
7407;BME280;3745;56.964;24.128;2023-05-01T00:31:38;101564.25;;;4.05;100.00
7407;BME280;3745;56.964;24.128;2023-05-01T00:34:06;101602.16;;;4.27;100.00
7407;BME280;3745;56.964;24.128;2023-05-01T00:36:32;101684.84;;;4.75;100.00
7407;BME280;3745;56.964;24.128;2023-05-01T00:38:57;101686.72;;;4.79;100.00
7407;BME280;3745;56.964;24.128;2023-05-01T00:41:23;101696.91;;;4.82;100.00
7407;BME280;3745;56.964;24.128;2023-05-01T00:43:48;101572.53;;;4.04;100.00
7407;BME280;3745;56.964;24.128;2023-05-01T00:46:14;101690.00;;;4.78;100.00
7407;BME280;3745;56.964;24.128;2023-05-01T00:48:39;101693.78;;;4.70;100.00
7407;BME280;3745;56.964;24.128;2023-05-01T00:51:06;101633.38;;;4.33;100.00
7407;BME280;3745;56.964;24.128;2023-05-01T00:53:33;101695.16;;;4.65;100.00
7407;BME280;3745;56.964;24.128;2023-05-01T00:56:00;101591.03;;;4.06;100.00
7407;BME280;3745;56.964;24.128;2023-05-01T00:58:26;101665.94;;;4.50;100.00
7407;BME280;3745;56.964;24.128;2023-05-01T01:00:52;101565.84;;;3.88;100.00
7407;BME280;3745;56.964;24.128;2023-05-01T01:03:18;101636.03;;;4.20;100.00
7407;BME280;3745;56.964;24.128;2023-05-01T01:05:50;101549.34;;;3.75;100.00
7407;BME280;3745;56.964;24.128;2023-05-01T01:08:34;101699.09;;;4.60;100.00
7407;BME280;3745;56.964;24.128;2023-05-01T01:13:57;101690.63;;;4.74;100.00
7407;BME280;3745;56.964;24.128;2023-05-01T01:21:26;101690.25;;;4.67;100.00
7407;BME280;3745;56.964;24.128;2023-05-01T01:35:52;101665.69;;;4.29;100.00
7407;BME280;3745;56.964;24.128;2023-05-01T01:38:22;101705.03;;;4.46;100.00
7407;BME280;3745;56.964;24.128;2023-05-01T01:41:07;101699.69;;;4.40;100.00
7407;BME280;3745;56.964;24.128;2023-05-01T01:43:39;101620.09;;;3.88;100.00
7407;BME280;3745;56.964;24.128;2023-05-01T01:46:06;101704.22;;;4.31;100.00
7407;BME280;3745;56.964;24.128;2023-05-01T01:48:36;101673.19;;;4.13;100.00
7407;BME280;3745;56.964;24.128;2023-05-01T01:51:07;101681.50;;;4.12;100.00
7407;BME280;3745;56.964;24.128;2023-05-01T01:53:36;101657.34;;;3.98;100.00
7407;BME280;3745;56.964;24.128;2023-05-01T01:56:04;101667.19;;;3.95;100.00
7407;BME280;3745;56.964;24.128;2023-05-01T01:58:34;101695.13;;;4.17;100.00
7407;BME280;3745;56.964;24.128;2023-05-01T02:01:00;101663.28;;;3.83;100.00
7407;BME280;3745;56.964;24.128;2023-05-01T02:03:26;101614.81;;;3.52;100.00
7407;BME280;3745;56.964;24.128;2023-05-01T02:05:57;101695.88;;;4.00;100.00
7407;BME280;3745;56.964;24.128;2023-05-01T02:08:28;101662.66;;;3.88;100.00
7407;BME280;3745;56.964;24.128;2023-05-01T02:10:55;101695.72;;;3.97;100.00
7407;BME280;3745;56.964;24.128;2023-05-01T02:13:27;101698.66;;;3.90;100.00
7407;BME280;3745;56.964;24.128;2023-05-01T02:15:55;101686.91;;;3.89;100.00
7407;BME280;3745;56.964;24.128;2023-05-01T02:18:21;101674.50;;;3.75;100.00
7407;BME280;3745;56.964;24.128;2023-05-01T02:20:47;101699.41;;;3.89;100.00
7407;BME280;3745;56.964;24.128;2023-05-01T02:23:13;101637.94;;;3.48;100.00
7407;BME280;3745;56.964;24.128;2023-05-01T02:25:39;101691.41;;;3.79;100.00
7407;BME280;3745;56.964;24.128;2023-05-01T02:28:11;101611.56;;;3.24;100.00
7407;BME280;3745;56.964;24.128;2023-05-01T02:30:37;101614.41;;;3.30;100.00
7407;BME280;3745;56.964;24.128;2023-05-01T02:33:05;101636.25;;;3.47;100.00
7407;BME280;3745;56.964;24.128;2023-05-01T02:35:38;101692.47;;;3.68;100.00
7407;BME280;3745;56.964;24.128;2023-05-01T02:38:03;101654.53;;;3.46;100.00
7407;BME280;3745;56.964;24.128;2023-05-01T02:40:29;101695.22;;;3.73;100.00
7407;BME280;3745;56.964;24.128;2023-05-01T02:42:56;101679.69;;;3.64;100.00
7407;BME280;3745;56.964;24.128;2023-05-01T02:45:27;101644.94;;;3.39;100.00
7407;BME280;3745;56.964;24.128;2023-05-01T02:47:58;101694.72;;;3.64;100.00
7407;BME280;3745;56.964;24.128;2023-05-01T02:50:25;101598.47;;;2.99;100.00
7407;BME280;3745;56.964;24.128;2023-05-01T02:52:52;101671.44;;;3.50;100.00
7407;BME280;3745;56.964;24.128;2023-05-01T02:55:19;101695.75;;;3.67;100.00
7407;BME280;3745;56.964;24.128;2023-05-01T02:57:44;101649.53;;;3.46;100.00
7407;BME280;3745;56.964;24.128;2023-05-01T03:00:10;101692.97;;;3.77;100.00
7407;BME280;3745;56.964;24.128;2023-05-01T03:02:39;101692.28;;;3.80;100.00
7407;BME280;3745;56.964;24.128;2023-05-01T03:05:05;101693.75;;;3.76;100.00
7407;BME280;3745;56.964;24.128;2023-05-01T03:07:31;101641.75;;;3.56;100.00
7407;BME280;3745;56.964;24.128;2023-05-01T03:10:01;101683.72;;;3.76;100.00
7407;BME280;3745;56.964;24.128;2023-05-01T03:12:31;101592.81;;;3.16;100.00
7407;BME280;3745;56.964;24.128;2023-05-01T03:14:56;101587.63;;;3.13;100.00
7407;BME280;3745;56.964;24.128;2023-05-01T03:17:22;101700.56;;;3.79;100.00
7407;BME280;3745;56.964;24.128;2023-05-01T03:19:48;101589.66;;;3.20;100.00
7407;BME280;3745;56.964;24.128;2023-05-01T03:22:14;101512.75;;;2.70;100.00
7407;BME280;3745;56.964;24.128;2023-05-01T03:24:41;101582.47;;;3.10;100.00
7407;BME280;3745;56.964;24.128;2023-05-01T03:27:06;101627.25;;;3.36;100.00
7407;BME280;3745;56.964;24.128;2023-05-01T03:29:32;101596.22;;;3.18;100.00
7407;BME280;3745;56.964;24.128;2023-05-01T03:31:59;101666.94;;;3.59;100.00
7407;BME280;3745;56.964;24.128;2023-05-01T03:34:24;101610.03;;;3.26;100.00
7407;BME280;3745;56.964;24.128;2023-05-01T03:36:52;101603.31;;;3.25;100.00
7407;BME280;3745;56.964;24.128;2023-05-01T03:39:18;101668.66;;;3.60;100.00
7407;BME280;3745;56.964;24.128;2023-05-01T03:41:43;101693.31;;;3.83;100.00
7407;BME280;3745;56.964;24.128;2023-05-01T03:44:09;101669.66;;;3.78;100.00
7407;BME280;3745;56.964;24.128;2023-05-01T03:46:35;101693.53;;;4.03;100.00
7407;BME280;3745;56.964;24.128;2023-05-01T03:49:00;101632.81;;;3.76;100.00
7407;BME280;3745;56.964;24.128;2023-05-01T03:51:26;101700.25;;;4.04;100.00
7407;BME280;3745;56.964;24.128;2023-05-01T03:53:51;101621.00;;;3.73;100.00
7407;BME280;3745;56.964;24.128;2023-05-01T03:56:17;101694.03;;;4.12;100.00
7407;BME280;3745;56.964;24.128;2023-05-01T03:58:43;101687.66;;;4.18;100.00
7407;BME280;3745;56.964;24.128;2023-05-01T04:01:08;101681.28;;;4.23;100.00
7407;BME280;3745;56.964;24.128;2023-05-01T04:03:34;101599.72;;;3.65;100.00
7407;BME280;3745;56.964;24.128;2023-05-01T04:06:00;101680.97;;;4.17;100.00
7407;BME280;3745;56.964;24.128;2023-05-01T04:08:26;101690.75;;;4.29;100.00
7407;BME280;3745;56.964;24.128;2023-05-01T04:10:51;101656.63;;;4.15;100.00
7407;BME280;3745;56.964;24.128;2023-05-01T04:13:17;101643.78;;;4.09;100.00
7407;BME280;3745;56.964;24.128;2023-05-01T04:15:45;101651.28;;;4.09;100.00
7407;BME280;3745;56.964;24.128;2023-05-01T04:18:11;101656.94;;;4.21;100.00
7407;BME280;3745;56.964;24.128;2023-05-01T04:20:37;101688.44;;;4.48;100.00
7407;BME280;3745;56.964;24.128;2023-05-01T04:23:04;101652.72;;;4.36;100.00
7407;BME280;3745;56.964;24.128;2023-05-01T04:25:30;101687.34;;;4.59;100.00
7407;BME280;3745;56.964;24.128;2023-05-01T04:27:56;101677.16;;;4.56;100.00
7407;BME280;3745;56.964;24.128;2023-05-01T04:30:21;101597.59;;;4.20;100.00
7407;BME280;3745;56.964;24.128;2023-05-01T04:32:47;101697.06;;;4.85;100.00
7407;BME280;3745;56.964;24.128;2023-05-01T04:35:12;101650.84;;;4.64;100.00
7407;BME280;3745;56.964;24.128;2023-05-01T04:37:38;101641.13;;;4.70;100.00
7407;BME280;3745;56.964;24.128;2023-05-01T04:40:04;101706.13;;;5.16;100.00
7407;BME280;3745;56.964;24.128;2023-05-01T04:42:30;101708.66;;;5.33;100.00
7407;BME280;3745;56.964;24.128;2023-05-01T04:44:56;101716.56;;;5.41;100.00
7407;BME280;3745;56.964;24.128;2023-05-01T04:47:22;101709.97;;;5.43;100.00
7407;BME280;3745;56.964;24.128;2023-05-01T04:49:48;101712.69;;;5.47;100.00
7407;BME280;3745;56.964;24.128;2023-05-01T04:52:13;101637.94;;;5.07;100.00
7407;BME280;3745;56.964;24.128;2023-05-01T04:54:39;101672.94;;;5.39;100.00
7407;BME280;3745;56.964;24.128;2023-05-01T04:57:05;101623.63;;;5.22;100.00
7407;BME280;3745;56.964;24.128;2023-05-01T04:59:30;101585.03;;;5.02;100.00
7407;BME280;3745;56.964;24.128;2023-05-01T05:01:56;101579.13;;;5.02;100.00
7407;BME280;3745;56.964;24.128;2023-05-01T05:04:22;101716.78;;;5.97;100.00
7407;BME280;3745;56.964;24.128;2023-05-01T05:06:47;101715.63;;;6.08;100.00
7407;BME280;3745;56.964;24.128;2023-05-01T05:09:13;101689.34;;;6.02;100.00
7407;BME280;3745;56.964;24.128;2023-05-01T05:11:39;101544.91;;;5.20;100.00
7407;BME280;3745;56.964;24.128;2023-05-01T05:14:05;101551.34;;;5.50;100.00
7407;BME280;3745;56.964;24.128;2023-05-01T05:16:31;101631.91;;;6.09;100.00
7407;BME280;3745;56.964;24.128;2023-05-01T05:18:56;101715.34;;;6.76;100.00
7407;BME280;3745;56.964;24.128;2023-05-01T05:21:22;101694.22;;;6.72;100.00
7407;BME280;3745;56.964;24.128;2023-05-01T05:23:48;101641.41;;;6.53;100.00
7407;BME280;3745;56.964;24.128;2023-05-01T05:26:13;101715.63;;;7.02;100.00
7407;BME280;3745;56.964;24.128;2023-05-01T05:28:39;101709.28;;;7.11;100.00
7407;BME280;3745;56.964;24.128;2023-05-01T05:31:05;101667.03;;;7.03;100.00
7407;BME280;3745;56.964;24.128;2023-05-01T05:33:30;101682.78;;;7.19;100.00
7407;BME280;3745;56.964;24.128;2023-05-01T05:35:57;101656.00;;;7.21;100.00
7407;BME280;3745;56.964;24.128;2023-05-01T05:38:24;101616.47;;;6.97;100.00
7407;BME280;3745;56.964;24.128;2023-05-01T05:40:50;101670.50;;;7.47;100.00
7407;BME280;3745;56.964;24.128;2023-05-01T05:43:15;101705.25;;;7.76;100.00
7407;BME280;3745;56.964;24.128;2023-05-01T05:45:41;101709.53;;;7.99;100.00
7407;BME280;3745;56.964;24.128;2023-05-01T05:48:07;101650.00;;;7.81;100.00
7407;BME280;3745;56.964;24.128;2023-05-01T05:50:33;101718.66;;;8.40;100.00
7407;BME280;3745;56.964;24.128;2023-05-01T05:52:58;101619.16;;;7.88;100.00
7407;BME280;3745;56.964;24.128;2023-05-01T05:55:24;101716.75;;;8.57;100.00
7407;BME280;3745;56.964;24.128;2023-05-01T05:57:49;101676.50;;;8.36;100.00
7407;BME280;3745;56.964;24.128;2023-05-01T06:00:15;101681.13;;;8.48;100.00
7407;BME280;3745;56.964;24.128;2023-05-01T06:02:41;101702.91;;;8.69;100.00
7407;BME280;3745;56.964;24.128;2023-05-01T06:05:07;101605.41;;;8.24;100.00
7407;BME280;3745;56.964;24.128;2023-05-01T06:07:34;101734.09;;;8.95;100.00
7407;BME280;3745;56.964;24.128;2023-05-01T06:10:00;101688.75;;;8.73;100.00
7407;BME280;3745;56.964;24.128;2023-05-01T06:12:32;101720.09;;;9.03;100.00
7407;BME280;3745;56.964;24.128;2023-05-01T06:14:58;101723.72;;;9.11;100.00
7407;BME280;3745;56.964;24.128;2023-05-01T06:17:24;101729.28;;;9.26;100.00
7407;BME280;3745;56.964;24.128;2023-05-01T06:19:50;101731.72;;;9.49;100.00
7407;BME280;3745;56.964;24.128;2023-05-01T06:22:20;101720.09;;;9.54;100.00
7407;BME280;3745;56.964;24.128;2023-05-01T06:24:46;101725.53;;;9.66;100.00
7407;BME280;3745;56.964;24.128;2023-05-01T06:27:12;101691.50;;;9.55;100.00
7407;BME280;3745;56.964;24.128;2023-05-01T06:29:37;101624.84;;;9.24;100.00
7407;BME280;3745;56.964;24.128;2023-05-01T06:32:03;101698.56;;;9.65;100.00
7407;BME280;3745;56.964;24.128;2023-05-01T06:34:29;101723.72;;;9.87;99.40
7407;BME280;3745;56.964;24.128;2023-05-01T06:36:55;101718.09;;;9.97;98.88
7407;BME280;3745;56.964;24.128;2023-05-01T06:39:21;101719.41;;;10.13;89.01
7407;BME280;3745;56.964;24.128;2023-05-01T06:41:47;101677.91;;;10.06;87.93
7407;BME280;3745;56.964;24.128;2023-05-01T06:44:13;101725.91;;;10.31;82.68
7407;BME280;3745;56.964;24.128;2023-05-01T06:46:39;101728.00;;;10.45;81.24
7407;BME280;3745;56.964;24.128;2023-05-01T06:49:05;101725.84;;;10.58;81.05
7407;BME280;3745;56.964;24.128;2023-05-01T06:51:31;101690.66;;;10.38;80.18
7407;BME280;3745;56.964;24.128;2023-05-01T06:53:56;101719.94;;;10.58;75.40
7407;BME280;3745;56.964;24.128;2023-05-01T06:56:22;101692.75;;;10.51;76.78
7407;BME280;3745;56.964;24.128;2023-05-01T06:58:48;101674.47;;;10.61;79.22
7407;BME280;3745;56.964;24.128;2023-05-01T07:01:13;101717.75;;;11.01;75.20
7407;BME280;3745;56.964;24.128;2023-05-01T07:03:39;101676.72;;;10.83;72.36
7407;BME280;3745;56.964;24.128;2023-05-01T07:06:05;101729.28;;;11.23;70.47
7407;BME280;3745;56.964;24.128;2023-05-01T07:08:30;101639.81;;;10.91;65.01
7407;BME280;3745;56.964;24.128;2023-05-01T07:10:56;101657.94;;;11.06;62.81
7407;BME280;3745;56.964;24.128;2023-05-01T07:13:23;101715.31;;;11.38;60.20
7407;BME280;3745;56.964;24.128;2023-05-01T07:15:48;101650.19;;;11.00;59.24
7407;BME280;3745;56.964;24.128;2023-05-01T07:18:14;101682.84;;;11.22;59.09
7407;BME280;3745;56.964;24.128;2023-05-01T07:20:41;101669.09;;;11.14;57.54
7407;BME280;3745;56.964;24.128;2023-05-01T07:23:07;101718.91;;;11.47;57.35
7407;BME280;3745;56.964;24.128;2023-05-01T07:25:34;101666.13;;;11.30;55.26
7407;BME280;3745;56.964;24.128;2023-05-01T07:28:06;101712.50;;;11.61;53.52
7407;BME280;3745;56.964;24.128;2023-05-01T07:30:33;101658.91;;;11.11;52.69
7407;BME280;3745;56.964;24.128;2023-05-01T07:32:59;101576.88;;;10.72;53.86
7407;BME280;3745;56.964;24.128;2023-05-01T07:35:24;101700.56;;;11.57;53.93
7407;BME280;3745;56.964;24.128;2023-05-01T07:37:51;101618.72;;;11.26;54.34
7407;BME280;3745;56.964;24.128;2023-05-01T07:40:17;101699.66;;;11.89;53.14
7407;BME280;3745;56.964;24.128;2023-05-01T07:42:45;101695.66;;;11.99;52.03
7407;BME280;3745;56.964;24.128;2023-05-01T07:45:11;101637.44;;;11.67;52.36
7407;BME280;3745;56.964;24.128;2023-05-01T07:47:37;101620.00;;;11.43;47.29
7407;BME280;3745;56.964;24.128;2023-05-01T07:50:03;101660.81;;;11.90;46.32
7407;BME280;3745;56.964;24.128;2023-05-01T07:52:29;101568.31;;;11.38;44.12
7407;BME280;3745;56.964;24.128;2023-05-01T07:54:55;101552.97;;;11.32;42.51
7407;BME280;3745;56.964;24.128;2023-05-01T07:57:20;101613.03;;;11.71;42.28
7407;BME280;3745;56.964;24.128;2023-05-01T07:59:54;101689.50;;;12.28;43.25
7407;BME280;3745;56.964;24.128;2023-05-01T08:02:21;101617.56;;;11.84;45.06
7407;BME280;3745;56.964;24.128;2023-05-01T08:04:50;101680.03;;;12.19;45.02
7407;BME280;3745;56.964;24.128;2023-05-01T08:07:16;101693.16;;;12.40;46.05
7407;BME280;3745;56.964;24.128;2023-05-01T08:09:45;101695.94;;;12.52;45.62
7407;BME280;3745;56.964;24.128;2023-05-01T08:12:11;101560.97;;;11.88;43.33
7407;BME280;3745;56.964;24.128;2023-05-01T08:14:37;101620.53;;;12.05;44.37
7407;BME280;3745;56.964;24.128;2023-05-01T08:17:06;101696.06;;;12.59;45.44
7407;BME280;3745;56.964;24.128;2023-05-01T08:19:35;101501.47;;;11.33;47.16
7407;BME280;3745;56.964;24.128;2023-05-01T08:22:00;101674.09;;;12.61;48.62
7407;BME280;3745;56.964;24.128;2023-05-01T08:24:26;101632.91;;;12.30;47.19
7407;BME280;3745;56.964;24.128;2023-05-01T08:26:52;101691.84;;;12.59;46.94
7407;BME280;3745;56.964;24.128;2023-05-01T08:29:17;101649.34;;;12.50;48.10
7407;BME280;3745;56.964;24.128;2023-05-01T08:31:44;101583.53;;;12.16;47.77
7407;BME280;3745;56.964;24.128;2023-05-01T08:34:09;101667.41;;;12.66;48.24
7407;BME280;3745;56.964;24.128;2023-05-01T08:36:35;101600.53;;;12.20;48.68
7407;BME280;3745;56.964;24.128;2023-05-01T08:39:01;101604.06;;;12.28;48.26
7407;BME280;3745;56.964;24.128;2023-05-01T08:41:28;101557.22;;;12.13;48.05
7407;BME280;3745;56.964;24.128;2023-05-01T08:43:56;101680.09;;;13.09;46.64
7407;BME280;3745;56.964;24.128;2023-05-01T08:46:49;101678.25;;;13.02;45.87
7407;BME280;3745;56.964;24.128;2023-05-01T08:49:18;101666.22;;;12.92;47.28
7407;BME280;3745;56.964;24.128;2023-05-01T08:51:46;101652.06;;;13.06;46.99
7407;BME280;3745;56.964;24.128;2023-05-01T08:54:13;101670.38;;;13.36;46.96
7407;BME280;3745;56.964;24.128;2023-05-01T08:56:41;101589.44;;;13.08;46.20
7407;BME280;3745;56.964;24.128;2023-05-01T08:59:09;101672.28;;;13.49;46.41
7407;BME280;3745;56.964;24.128;2023-05-01T09:01:36;101661.94;;;13.37;47.34
7407;BME280;3745;56.964;24.128;2023-05-01T09:04:03;101664.63;;;13.46;46.36
7407;BME280;3745;56.964;24.128;2023-05-01T09:06:34;101629.88;;;13.48;45.65
7407;BME280;3745;56.964;24.128;2023-05-01T09:09:00;101653.81;;;13.60;46.20
7407;BME280;3745;56.964;24.128;2023-05-01T09:11:27;101665.16;;;13.27;45.50
7407;BME280;3745;56.964;24.128;2023-05-01T09:13:54;101659.34;;;13.34;46.26
7407;BME280;3745;56.964;24.128;2023-05-01T09:16:32;101636.47;;;13.34;46.47
7407;BME280;3745;56.964;24.128;2023-05-01T09:19:01;101633.25;;;13.47;46.65
7407;BME280;3745;56.964;24.128;2023-05-01T09:21:33;101496.34;;;12.61;44.99
7407;BME280;3745;56.964;24.128;2023-05-01T09:23:58;101518.63;;;12.80;45.71
7407;BME280;3745;56.964;24.128;2023-05-01T09:26:24;101507.06;;;12.46;45.53
7407;BME280;3745;56.964;24.128;2023-05-01T09:28:54;101380.28;;;12.01;46.57
7407;BME280;3745;56.964;24.128;2023-05-01T09:31:26;101563.69;;;13.42;46.26
7407;BME280;3745;56.964;24.128;2023-05-01T09:34:02;101616.94;;;13.92;45.48
7407;BME280;3745;56.964;24.128;2023-05-01T09:36:30;101470.75;;;13.04;45.51
7407;BME280;3745;56.964;24.128;2023-05-01T09:38:57;101548.66;;;13.61;45.03
7407;BME280;3745;56.964;24.128;2023-05-01T09:41:24;101547.97;;;13.72;45.04
7407;BME280;3745;56.964;24.128;2023-05-01T09:43:52;101482.38;;;13.48;44.74
7407;BME280;3745;56.964;24.128;2023-05-01T09:46:22;101637.91;;;14.40;46.63
7407;BME280;3745;56.964;24.128;2023-05-01T09:48:56;101590.19;;;14.24;45.37
7407;BME280;3745;56.964;24.128;2023-05-01T09:51:33;101421.13;;;13.30;45.64
7407;BME280;3745;56.964;24.128;2023-05-01T09:54:03;101637.38;;;14.70;45.57
7407;BME280;3745;56.964;24.128;2023-05-01T09:56:33;101458.25;;;13.88;46.37
7407;BME280;3745;56.964;24.128;2023-05-01T09:59:22;101483.13;;;14.15;45.61
7407;BME280;3745;56.964;24.128;2023-05-01T10:01:47;101602.44;;;14.58;46.80
7407;BME280;3745;56.964;24.128;2023-05-01T10:04:30;101618.09;;;14.17;48.07
7407;BME280;3745;56.964;24.128;2023-05-01T10:07:03;101443.88;;;13.20;48.69
7407;BME280;3745;56.964;24.128;2023-05-01T10:09:35;101620.97;;;14.42;49.67
7407;BME280;3745;56.964;24.128;2023-05-01T10:12:07;101411.28;;;13.57;50.16
7407;BME280;3745;56.964;24.128;2023-05-01T10:14:32;101624.75;;;14.84;49.93
7407;BME280;3745;56.964;24.128;2023-05-01T10:17:16;101544.47;;;14.33;50.72
7407;BME280;3745;56.964;24.128;2023-05-01T10:19:51;101365.06;;;13.20;50.49
7407;BME280;3745;56.964;24.128;2023-05-01T10:22:25;101448.75;;;13.71;50.88
7407;BME280;3745;56.964;24.128;2023-05-01T10:24:53;101507.75;;;14.15;50.60
7407;BME280;3745;56.964;24.128;2023-05-01T10:27:27;101510.25;;;14.13;49.22
7407;BME280;3745;56.964;24.128;2023-05-01T10:29:53;101359.16;;;13.19;49.66
7407;BME280;3745;56.964;24.128;2023-05-01T10:32:19;101315.41;;;12.77;49.74
7407;BME280;3745;56.964;24.128;2023-05-01T10:34:56;101584.34;;;14.33;49.32
7407;BME280;3745;56.964;24.128;2023-05-01T10:37:45;101607.50;;;14.55;50.13
7407;BME280;3745;56.964;24.128;2023-05-01T10:40:46;101603.81;;;14.29;51.10
7407;BME280;3745;56.964;24.128;2023-05-01T10:45:46;101603.50;;;14.80;50.08
7407;BME280;3745;56.964;24.128;2023-05-01T10:51:15;101603.44;;;14.74;50.95
7407;BME280;3745;56.964;24.128;2023-05-01T10:53:43;101487.91;;;13.85;51.36
7407;BME280;3745;56.964;24.128;2023-05-01T10:59:01;101520.03;;;13.77;52.95
7407;BME280;3745;56.964;24.128;2023-05-01T11:07:14;101599.94;;;13.91;56.53
7407;BME280;3745;56.964;24.128;2023-05-01T11:09:55;101357.66;;;12.72;59.05
7407;BME280;3745;56.964;24.128;2023-05-01T11:12:48;101591.38;;;14.55;59.48
7407;BME280;3745;56.964;24.128;2023-05-01T11:15:30;101395.97;;;13.51;56.85
7407;BME280;3745;56.964;24.128;2023-05-01T11:18:00;101346.66;;;13.37;58.45
7407;BME280;3745;56.964;24.128;2023-05-01T11:22:57;101445.50;;;13.84;60.96
7407;BME280;3745;56.964;24.128;2023-05-01T11:25:32;101445.66;;;13.99;60.37
7407;BME280;3745;56.964;24.128;2023-05-01T11:28:02;101591.47;;;14.64;59.38
7407;BME280;3745;56.964;24.128;2023-05-01T11:30:39;101516.16;;;14.09;61.96
7407;BME280;3745;56.964;24.128;2023-05-01T11:33:06;101489.66;;;13.89;64.49
7407;BME280;3745;56.964;24.128;2023-05-01T11:35:32;101516.34;;;14.24;64.53
7407;BME280;3745;56.964;24.128;2023-05-01T11:38:00;101485.31;;;13.80;66.02
7407;BME280;3745;56.964;24.128;2023-05-01T11:40:29;101356.56;;;13.13;66.62
7407;BME280;3745;56.964;24.128;2023-05-01T11:43:08;101295.16;;;12.83;67.82
7407;BME280;3745;56.964;24.128;2023-05-01T11:45:35;101499.75;;;13.83;69.44
7407;BME280;3745;56.964;24.128;2023-05-01T11:48:13;101435.78;;;13.49;70.27
7407;BME280;3745;56.964;24.128;2023-05-01T11:50:44;101401.63;;;13.28;71.67
7407;BME280;3745;56.964;24.128;2023-05-01T11:53:18;101597.88;;;14.32;72.05
7407;BME280;3745;56.964;24.128;2023-05-01T11:55:45;101371.59;;;12.98;71.47
7407;BME280;3745;56.964;24.128;2023-05-01T11:58:14;101589.81;;;13.97;71.46
7407;BME280;3745;56.964;24.128;2023-05-01T12:00:46;101502.41;;;13.24;73.50
7407;BME280;3745;56.964;24.128;2023-05-01T12:03:15;101433.81;;;12.69;74.75
7407;BME280;3745;56.964;24.128;2023-05-01T12:05:42;101399.53;;;12.39;75.18
7407;BME280;3745;56.964;24.128;2023-05-01T12:08:21;101585.88;;;13.52;75.99
7407;BME280;3745;56.964;24.128;2023-05-01T12:10:54;101591.78;;;13.50;76.79
7407;BME280;3745;56.964;24.128;2023-05-01T12:13:24;101584.31;;;13.64;77.76
7407;BME280;3745;56.964;24.128;2023-05-01T12:15:52;101582.53;;;13.56;77.59
7407;BME280;3745;56.964;24.128;2023-05-01T12:18:19;101421.94;;;12.68;79.21
7407;BME280;3745;56.964;24.128;2023-05-01T12:20:52;101577.63;;;13.69;80.42
7407;BME280;3745;56.964;24.128;2023-05-01T12:23:35;101456.06;;;12.85;83.17
7407;BME280;3745;56.964;24.128;2023-05-01T12:26:20;101306.88;;;11.62;89.00
7407;BME280;3745;56.964;24.128;2023-05-01T12:31:29;101378.47;;;11.94;96.81
7407;BME280;3745;56.964;24.128;2023-05-01T12:36:28;101444.41;;;11.94;100.00
7407;BME280;3745;56.964;24.128;2023-05-01T12:39:07;101509.59;;;12.44;100.00
7407;BME280;3745;56.964;24.128;2023-05-01T12:41:47;101439.94;;;12.27;100.00
7407;BME280;3745;56.964;24.128;2023-05-01T12:44:20;101352.84;;;11.79;100.00
7407;BME280;3745;56.964;24.128;2023-05-01T12:47:06;101472.97;;;12.83;100.00
7407;BME280;3745;56.964;24.128;2023-05-01T12:49:36;101478.34;;;13.01;100.00
7407;BME280;3745;56.964;24.128;2023-05-01T12:52:08;101398.44;;;12.81;98.93
7407;BME280;3745;56.964;24.128;2023-05-01T12:54:43;101470.38;;;13.38;97.02
7407;BME280;3745;56.964;24.128;2023-05-01T12:57:12;101382.88;;;13.20;96.77
7407;BME280;3745;56.964;24.128;2023-05-01T12:59:57;101293.25;;;12.64;93.50
7407;BME280;3745;56.964;24.128;2023-05-01T13:02:34;101291.31;;;12.47;93.69
7407;BME280;3745;56.964;24.128;2023-05-01T13:05:21;101542.00;;;13.69;92.36
7407;BME280;3745;56.964;24.128;2023-05-01T13:07:50;101388.66;;;12.48;94.09
7407;BME280;3745;56.964;24.128;2023-05-01T13:10:28;101432.09;;;12.68;92.83
7407;BME280;3745;56.964;24.128;2023-05-01T13:12:57;101505.41;;;12.99;90.65
7407;BME280;3745;56.964;24.128;2023-05-01T13:15:23;101556.22;;;12.99;90.28
7407;BME280;3745;56.964;24.128;2023-05-01T13:17:52;101421.31;;;12.28;89.81
7407;BME280;3745;56.964;24.128;2023-05-01T13:20:24;101551.53;;;13.23;88.76
7407;BME280;3745;56.964;24.128;2023-05-01T13:22:55;101496.94;;;13.00;87.22
7407;BME280;3745;56.964;24.128;2023-05-01T13:25:21;101414.19;;;12.59;84.14
7407;BME280;3745;56.964;24.128;2023-05-01T13:27:54;101385.88;;;12.34;83.47
7407;BME280;3745;56.964;24.128;2023-05-01T13:30:35;101493.59;;;13.01;82.78
7407;BME280;3745;56.964;24.128;2023-05-01T13:33:09;101290.38;;;11.84;80.59
7407;BME280;3745;56.964;24.128;2023-05-01T13:35:38;101344.16;;;12.16;78.58
7407;BME280;3745;56.964;24.128;2023-05-01T13:38:08;101541.31;;;13.20;74.66
7407;BME280;3745;56.964;24.128;2023-05-01T13:40:42;101447.06;;;12.49;72.38
7407;BME280;3745;56.964;24.128;2023-05-01T13:43:13;101541.91;;;13.05;71.05
7407;BME280;3745;56.964;24.128;2023-05-01T13:45:41;101364.44;;;12.14;69.74
7407;BME280;3745;56.964;24.128;2023-05-01T13:48:08;101240.63;;;11.42;67.34